Time;durP1;ratioP1;P1;durP2;ratioP2;P2;SDS_P1;SDS_P2;PMS_P1;PMS_P2;Temp;Humidity;BMP_temperature;BMP_pressure;BME280_temperature;BME280_humidity;BME280_pressure;Samples;Min_cycle;Max_cycle;Signal;HPM_P1;HPM_P2
2024/04/18 00:04:53;;;;;;;1999.90;999.90;;;;;;;5.97;100.00;101398.94;11136498;26;20012;-66
2024/04/18 00:09:56;;;;;;;1999.90;999.90;;;;;;;6.10;100.00;101397.69;11137965;26;20077;-66
2024/04/18 00:14:58;;;;;;;1999.90;999.90;;;;;;;6.25;100.00;101402.44;11137495;26;20004;-66
2024/04/18 00:20:02;;;;;;;1999.90;999.90;;;;;;;6.06;100.00;101409.91;11137688;26;20014;-67
2024/04/18 00:25:06;;;;;;;1999.90;999.90;;;;;;;6.26;100.00;101409.34;11164895;26;20011;-66
2024/04/18 00:30:09;;;;;;;1999.90;999.90;;;;;;;6.28;100.00;101417.09;11164635;26;20339;-66
2024/04/18 00:35:11;;;;;;;1999.90;999.90;;;;;;;6.15;100.00;101419.19;11137142;26;20000;-66
2024/04/18 00:40:13;;;;;;;1999.90;999.90;;;;;;;6.16;100.00;101425.28;11136932;26;20343;-66
2024/04/18 00:45:19;;;;;;;1999.90;999.90;;;;;;;6.20;100.00;101421.66;11136464;26;20007;-66
2024/04/18 00:50:21;;;;;;;1999.90;999.90;;;;;;;6.14;100.00;101420.09;11136691;26;20032;-66
2024/04/18 00:55:25;;;;;;;1999.90;999.90;;;;;;;6.25;100.00;101431.03;11136360;26;20346;-66
2024/04/18 01:00:28;;;;;;;1999.90;999.90;;;;;;;6.17;100.00;101420.03;11163850;26;20016;-66
2024/04/18 01:05:31;;;;;;;1999.90;999.90;;;;;;;6.11;100.00;101422.78;11163702;26;20000;-66
2024/04/18 01:10:33;;;;;;;1999.90;999.90;;;;;;;6.20;100.00;101432.91;11163740;26;20000;-66
2024/04/18 01:15:36;;;;;;;1999.90;999.90;;;;;;;6.14;100.00;101443.50;11135922;26;20012;-66
2024/04/18 01:20:39;;;;;;;1999.90;999.90;;;;;;;6.14;100.00;101444.34;11142432;26;20000;-66
2024/04/18 01:25:41;;;;;;;1999.90;999.90;;;;;;;6.18;100.00;101444.28;11142471;26;20000;-66
2024/04/18 01:30:44;;;;;;;1999.90;999.90;;;;;;;6.08;100.00;101452.31;11142052;26;20004;-66
2024/04/18 01:35:46;;;;;;;1999.90;999.90;;;;;;;6.36;100.00;101458.50;11142303;26;20014;-66
2024/04/18 01:40:49;;;;;;;1999.90;999.90;;;;;;;6.06;100.00;101461.06;11142239;26;20005;-66
2024/04/18 01:45:51;;;;;;;1999.90;999.90;;;;;;;5.98;100.00;101463.03;11141961;26;20347;-66
2024/04/18 01:50:54;;;;;;;1999.90;999.90;;;;;;;5.72;100.00;101464.56;11169408;26;20001;-66
2024/04/18 01:55:56;;;;;;;1999.90;999.90;;;;;;;5.61;100.00;101470.00;11142210;26;20014;-66
2024/04/18 02:00:59;;;;;;;1999.90;999.90;;;;;;;5.36;100.00;101474.97;11169246;26;20011;-67
2024/04/18 02:06:01;;;;;;;1999.90;999.90;;;;;;;5.03;100.00;101480.94;11141442;26;20447;-67
2024/04/18 02:11:04;;;;;;;1999.90;999.90;;;;;;;4.89;100.00;101492.53;11141198;26;20015;-66
2024/04/18 02:16:06;;;;;;;1999.90;999.90;;;;;;;4.81;100.00;101490.13;11141085;26;20071;-66
2024/04/18 02:21:09;;;;;;;1999.90;999.90;;;;;;;4.63;100.00;101488.78;11141177;26;20012;-66
2024/04/18 02:26:12;;;;;;;1999.90;999.90;;;;;;;4.53;100.00;101498.50;11140829;26;20014;-66
2024/04/18 02:31:14;;;;;;;1999.90;999.90;;;;;;;4.12;100.00;101502.78;11139655;26;20026;-66
2024/04/18 02:36:17;;;;;;;1999.90;999.90;;;;;;;4.08;100.00;101512.34;11140917;26;20000;-66
2024/04/18 02:41:19;;;;;;;1999.90;999.90;;;;;;;4.25;100.00;101521.53;11140559;26;20000;-66
2024/04/18 02:46:23;;;;;;;1999.90;999.90;;;;;;;4.03;100.00;101521.94;11167774;26;20000;-66
2024/04/18 02:51:25;;;;;;;1999.90;999.90;;;;;;;4.09;100.00;101524.41;11140216;26;20010;-66
2024/04/18 02:56:27;;;;;;;1999.90;999.90;;;;;;;3.93;100.00;101538.53;11167758;26;20032;-67
2024/04/18 03:01:30;;;;;;;1999.90;999.90;;;;;;;4.04;100.00;101538.34;11139980;26;20000;-66
2024/04/18 03:06:32;;;;;;;1999.90;999.90;;;;;;;4.14;100.00;101544.22;11167379;26;20004;-66
2024/04/18 03:11:35;;;;;;;1999.90;999.90;;;;;;;3.97;100.00;101545.38;11167215;26;20001;-66
2024/04/18 03:16:37;;;;;;;1999.90;999.90;;;;;;;3.97;100.00;101549.69;11139402;26;20001;-66
2024/04/18 03:21:40;;;;;;;1999.90;999.90;;;;;;;3.86;100.00;101558.50;11139389;26;20000;-67
2024/04/18 03:26:43;;;;;;;1999.90;999.90;;;;;;;3.91;100.00;101561.03;11139001;26;20012;-66
2024/04/18 03:31:50;;;;;;;1999.90;999.90;;;;;;;3.87;100.00;101561.97;11166747;26;20019;-67
2024/04/18 03:36:52;;;;;;;1999.90;999.90;;;;;;;3.72;100.00;101563.09;11166537;26;20004;-67
2024/04/18 03:41:55;;;;;;;1999.90;999.90;;;;;;;3.89;100.00;101555.03;11138469;26;20014;-66
2024/04/18 03:46:57;;;;;;;1999.90;999.90;;;;;;;3.67;100.00;101576.09;11165872;26;20000;-66
2024/04/18 03:52:00;;;;;;;1999.90;999.90;;;;;;;3.57;100.00;101584.06;11166193;26;20012;-65
2024/04/18 03:57:02;;;;;;;1999.90;999.90;;;;;;;3.51;100.00;101580.69;11138134;26;20074;-66
2024/04/18 04:02:05;;;;;;;1999.90;999.90;;;;;;;3.51;100.00;101584.97;11138381;26;20000;-66
2024/04/18 04:07:07;;;;;;;1999.90;999.90;;;;;;;3.47;100.00;101604.88;11138200;26;20001;-66
2024/04/18 04:12:10;;;;;;;1999.90;999.90;;;;;;;3.29;100.00;101615.50;11137892;26;20342;-66
2024/04/18 04:17:13;;;;;;;1999.90;999.90;;;;;;;3.32;100.00;101616.31;11137408;26;20012;-66
2024/04/18 04:22:15;;;;;;;1999.90;999.90;;;;;;;3.17;100.00;101625.16;11137730;26;20010;-66
2024/04/18 04:27:18;;;;;;;1999.90;999.90;;;;;;;3.31;100.00;101637.03;11137526;26;20366;-66
2024/04/18 04:32:22;;;;;;;1999.90;999.90;;;;;;;3.12;100.00;101633.84;11137360;26;20405;-67
2024/04/18 04:37:24;;;;;;;1999.90;999.90;;;;;;;3.34;100.00;101637.84;11137960;26;20000;-66
2024/04/18 04:42:27;;;;;;;1999.90;999.90;;;;;;;3.14;100.00;101648.50;11137165;26;19997;-66
2024/04/18 04:47:29;;;;;;;1999.90;999.90;;;;;;;3.23;100.00;101660.47;11136439;26;20011;-66
2024/04/18 04:52:32;;;;;;;1999.90;999.90;;;;;;;3.15;100.00;101657.97;11135568;26;20426;-66
2024/04/18 04:57:34;;;;;;;1999.90;999.90;;;;;;;3.25;100.00;101666.47;11136283;26;20012;-66
2024/04/18 05:02:37;;;;;;;1999.90;999.90;;;;;;;3.44;100.00;101669.66;11136492;26;20044;-65
2024/04/18 05:07:44;;;;;;;1999.90;999.90;;;;;;;3.31;100.00;101673.28;11136118;26;20394;-67
2024/04/18 05:12:47;;;;;;;1999.90;999.90;;;;;;;3.45;100.00;101680.88;11135810;26;20015;-65
2024/04/18 05:17:50;;;;;;;1999.90;999.90;;;;;;;3.51;100.00;101689.44;11163290;26;20001;-66
2024/04/18 05:22:52;;;;;;;1999.90;999.90;;;;;;;3.62;100.00;101702.22;11135697;26;20000;-65
2024/04/18 05:28:03;;;;;;;1999.90;999.90;;;;;;;3.53;100.00;101707.50;11135390;26;20724;-66
2024/04/18 05:33:06;;;;;;;1999.90;999.90;;;;;;;3.87;100.00;101710.50;11135289;26;20012;-66
2024/04/18 05:38:08;;;;;;;1999.90;999.90;;;;;;;3.75;100.00;101718.44;11134826;26;20011;-67
2024/04/18 05:43:11;;;;;;;1999.90;999.90;;;;;;;3.95;100.00;101717.28;11134628;26;20015;-65
2024/04/18 05:48:13;;;;;;;1999.90;999.90;;;;;;;3.91;100.00;101730.28;11134544;26;20011;-65
2024/04/18 05:53:16;;;;;;;1999.90;999.90;;;;;;;4.18;100.00;101732.50;11134555;26;20027;-66
2024/04/18 05:58:19;;;;;;;1999.90;999.90;;;;;;;4.11;100.00;101749.88;11134189;26;20011;-66
2024/04/18 06:03:22;;;;;;;1999.90;999.90;;;;;;;4.35;100.00;101751.22;11137008;26;20036;-66
2024/04/18 06:08:25;;;;;;;1999.90;999.90;;;;;;;4.35;100.00;101750.38;11141457;26;20000;-65
2024/04/18 06:13:28;;;;;;;1999.90;999.90;;;;;;;4.40;100.00;101754.56;11141403;26;20000;-66
2024/04/18 06:18:30;;;;;;;1999.90;999.90;;;;;;;4.57;100.00;101759.53;11141067;26;20000;-65
2024/04/18 06:23:33;;;;;;;1999.90;999.90;;;;;;;4.67;100.00;101772.31;11141416;26;20001;-65
2024/04/18 06:28:36;;;;;;;1999.90;999.90;;;;;;;4.90;100.00;101780.53;11168653;26;20000;-65
2024/04/18 06:33:39;;;;;;;1999.90;999.90;;;;;;;5.10;100.00;101779.34;11168323;26;20000;-65
2024/04/18 06:38:42;;;;;;;1999.90;999.90;;;;;;;5.05;100.00;101786.34;11168093;26;20000;-65
2024/04/18 06:43:44;;;;;;;1999.90;999.90;;;;;;;5.27;100.00;101792.00;11140735;26;20015;-66
2024/04/18 06:48:47;;;;;;;1999.90;999.90;;;;;;;5.45;100.00;101785.59;11140017;26;20001;-65
2024/04/18 06:53:50;;;;;;;1999.90;999.90;;;;;;;5.56;100.00;101797.47;11168118;26;20463;-66
2024/04/18 06:58:52;;;;;;;1999.90;999.90;;;;;;;5.83;100.00;101789.13;11140119;26;20005;-65
2024/04/18 07:03:55;;;;;;;1999.90;999.90;;;;;;;6.18;100.00;101800.50;11140009;26;20001;-66
2024/04/18 07:08:57;;;;;;;1999.90;999.90;;;;;;;6.53;100.00;101802.28;11139668;26;20015;-65
2024/04/18 07:14:00;;;;;;;1999.90;999.90;;;;;;;6.78;100.00;101797.31;11137449;26;20014;-66
2024/04/18 07:19:03;;;;;;;1999.90;999.90;;;;;;;7.10;100.00;101803.44;11139418;26;20494;-65
2024/04/18 07:24:06;;;;;;;1999.90;999.90;;;;;;;7.77;100.00;101805.88;11220686;20;20452;-65
2024/04/18 07:29:09;;;;;;;1999.90;999.90;;;;;;;8.23;97.41;101813.22;11362850;26;19998;-66
2024/04/18 07:34:12;;;;;;;1999.90;999.90;;;;;;;8.77;94.81;101817.56;11360125;26;20012;-66
2024/04/18 07:39:15;;;;;;;1999.90;999.90;;;;;;;9.27;88.49;101816.75;11360128;26;19998;-67
2024/04/18 07:44:19;;;;;;;1999.90;999.90;;;;;;;9.45;83.79;101815.22;11358834;26;20406;-67
2024/04/18 07:49:25;;;;;;;1999.90;999.90;;;;;;;9.72;83.58;101820.34;11358937;26;19998;-67
2024/04/18 07:54:28;;;;;;;1999.90;999.90;;;;;;;9.95;85.24;101822.94;11359460;26;20013;-67
2024/04/18 07:59:30;;;;;;;1999.90;999.90;;;;;;;9.17;82.51;101833.66;11359299;26;20074;-67
2024/04/18 08:04:34;;;;;;;1999.90;999.90;;;;;;;9.26;82.60;101838.53;11356832;26;20039;-66
2024/04/18 08:09:56;;;;;;;1999.90;999.90;;;;;;;10.22;80.35;101833.22;11330869;26;20453;-67
2024/04/18 08:15:05;;;;;;;1999.90;999.90;;;;;;;10.74;84.20;101844.28;11358625;26;20013;-67
2024/04/18 08:20:15;;;;;;;1999.90;999.90;;;;;;;11.13;79.06;101840.88;11360063;26;20010;-67
2024/04/18 08:25:18;;;;;;;1999.90;999.90;;;;;;;10.01;83.50;101861.94;11357334;26;20034;-67
2024/04/18 08:30:20;;;;;;;1999.90;999.90;;;;;;;9.81;83.39;101865.31;11327081;26;20326;-65
2024/04/18 08:35:23;;;;;;;1999.90;999.90;;;;;;;9.52;87.12;101869.00;11358225;26;20460;-65
2024/04/18 08:40:29;;;;;;;1999.90;999.90;;;;;;;11.69;79.40;101862.06;11358434;26;20394;-65
2024/04/18 08:45:34;;;;;;;1999.90;999.90;;;;;;;12.45;75.39;101868.13;11358018;26;19998;-65
2024/04/18 08:50:39;;;;;;;1999.90;999.90;;;;;;;10.66;77.09;101869.94;11359651;26;20326;-65
2024/04/18 08:55:50;;;;;;;1999.90;999.90;;;;;;;9.86;80.10;101871.22;11359427;26;19998;-65
2024/04/18 09:00:53;;;;;;;1999.90;999.90;;;;;;;12.64;72.45;101860.22;11359283;26;20002;-65
2024/04/18 09:05:55;;;;;;;1999.90;999.90;;;;;;;12.81;70.85;101866.44;11357848;26;20453;-65
2024/04/18 09:10:59;;;;;;;1999.90;999.90;;;;;;;12.87;68.08;101873.16;11358843;26;19998;-65
2024/04/18 09:16:02;;;;;;;1999.90;999.90;;;;;;;12.44;68.04;101865.63;11358729;26;19998;-65
2024/04/18 09:21:11;;;;;;;1999.90;999.90;;;;;;;10.99;68.14;101877.28;11358359;26;20009;-66
2024/04/18 09:26:13;;;;;;;1999.90;999.90;;;;;;;11.64;67.71;101879.78;11358022;26;20013;-65
2024/04/18 09:31:19;;;;;;;1999.90;999.90;;;;;;;11.14;68.23;101878.41;11358172;26;20010;-65
2024/04/18 09:36:37;;;;;;;1999.90;999.90;;;;;;;11.24;69.16;101886.75;11357037;26;20489;-69
2024/04/18 09:41:44;;;;;;;1999.90;999.90;;;;;;;12.59;64.72;101877.13;11363601;26;20066;-67
2024/04/18 09:46:50;;;;;;;1999.90;999.90;;;;;;;12.86;64.31;101888.09;11362587;26;19998;-67
2024/04/18 09:51:53;;;;;;;1999.90;999.90;;;;;;;13.56;60.76;101883.63;11328744;26;20075;-66
2024/04/18 09:56:57;;;;;;;1999.90;999.90;;;;;;;13.34;60.59;101868.13;11321088;26;19998;-66
2024/04/18 10:02:04;;;;;;;1999.90;999.90;;;;;;;14.83;59.75;101861.75;11287469;26;20009;-66
2024/04/18 10:07:11;;;;;;;1999.90;999.90;;;;;;;14.39;58.44;101859.84;11287458;26;20051;-66
2024/04/18 10:12:13;;;;;;;1999.90;999.90;;;;;;;10.87;66.40;101880.44;11288833;26;20039;-67
2024/04/18 10:17:23;;;;;;;1999.90;999.90;;;;;;;14.66;59.65;101860.09;11288754;26;20038;-67
2024/04/18 10:22:28;;;;;;;1999.90;999.90;;;;;;;14.04;59.55;101861.81;11287541;26;20031;-67
2024/04/18 10:27:47;;;;;;;;;;;;;;;14.18;60.07;101861.06;11287498;26;20007;-67
2024/04/18 10:32:52;;;;;;;1999.90;999.90;;;;;;;16.81;57.69;101860.00;11288479;26;19925;-67
2024/04/18 10:37:57;;;;;;;1999.90;999.90;;;;;;;14.55;58.04;101867.72;11288454;26;20009;-67
2024/04/18 10:43:13;;;;;;;1999.90;999.90;;;;;;;15.36;57.83;101862.09;11287900;26;20052;-67
2024/04/18 10:48:23;;;;;;;1999.90;999.90;;;;;;;15.81;55.49;101858.56;11284890;26;20014;-67
2024/04/18 10:53:26;;;;;;;1999.90;999.90;;;;;;;15.43;58.55;101873.13;11287765;26;20342;-67
2024/04/18 10:58:28;;;;;;;1999.90;999.90;;;;;;;15.64;56.24;101867.50;11287804;26;20003;-67
2024/04/18 11:03:32;;;;;;;1999.90;999.90;;;;;;;14.92;52.71;101862.13;11287570;26;20075;-67
2024/04/18 11:08:35;;;;;;;1999.90;999.90;;;;;;;17.08;49.96;101852.06;11286983;26;20007;-67
2024/04/18 11:13:37;;;;;;;1999.90;999.90;;;;;;;14.06;54.32;101862.56;11287429;26;19999;-67
2024/04/18 11:18:40;;;;;;;1999.90;999.90;;;;;;;13.51;57.21;101888.28;11285539;26;20076;-67
2024/04/18 11:23:43;;;;;;;1999.90;999.90;;;;;;;16.89;54.06;101871.84;11285544;26;20082;-68
2024/04/18 11:28:54;;;;;;;1999.90;999.90;;;;;;;15.85;51.26;101857.41;11286979;26;20075;-66
2024/04/18 11:33:57;;;;;;;1999.90;999.90;;;;;;;14.79;50.15;101851.44;11286748;26;19999;-67
2024/04/18 11:39:00;;;;;;;1999.90;999.90;;;;;;;14.19;54.96;101870.63;11255165;26;20014;-67
2024/04/18 11:44:04;;;;;;;1999.90;999.90;;;;;;;15.55;54.61;101858.34;11255077;26;19999;-66
2024/04/18 11:49:07;;;;;;;1999.90;999.90;;;;;;;15.37;50.71;101842.69;11285913;26;20011;-66
2024/04/18 11:54:10;;;;;;;1999.90;999.90;;;;;;;15.57;48.95;101833.56;11286119;26;19998;-66
2024/04/18 11:59:13;;;;;;;1999.90;999.90;;;;;;;16.28;46.48;101815.88;11225348;26;20342;-66
2024/04/18 12:04:16;;;;;;;1999.90;999.90;;;;;;;15.26;45.98;101823.19;11255463;26;20399;-67
2024/04/18 12:09:18;;;;;;;1999.90;999.90;;;;;;;14.70;47.74;101838.81;11286100;26;19999;-66
2024/04/18 12:14:21;;;;;;;1999.90;999.90;;;;;;;16.29;47.61;101827.28;11285514;26;20010;-66
2024/04/18 12:19:24;;;;;;;1999.90;999.90;;;;;;;16.73;42.97;101802.38;11253885;26;20334;-66
2024/04/18 12:24:26;;;;;;;1999.90;999.90;;;;;;;15.86;45.44;101823.00;11253307;26;20009;-66
2024/04/18 12:29:29;;;;;;;1999.90;999.90;;;;;;;19.44;41.94;101806.50;11253323;26;20007;-67
2024/04/18 12:34:31;;;;;;;1999.90;999.90;;;;;;;18.19;41.50;101807.19;11284729;26;19999;-68
2024/04/18 12:39:34;;;;;;;1999.90;999.90;;;;;;;16.35;43.99;101818.97;11284279;26;20009;-67
2024/04/18 12:44:36;;;;;;;1999.90;999.90;;;;;;;17.62;44.16;101830.63;11284661;26;20011;-66
2024/04/18 12:49:44;;;;;;;1999.90;999.90;;;;;;;16.72;43.69;101837.69;11252549;26;20071;-66
2024/04/18 12:54:47;;;;;;;1999.90;999.90;;;;;;;18.39;40.75;101813.63;11254371;26;20013;-67
2024/04/18 12:59:49;;;;;;;1999.90;999.90;;;;;;;20.18;41.01;101810.41;11253160;26;20009;-66
2024/04/18 13:04:52;;;;;;;1999.90;999.90;;;;;;;20.10;41.84;101810.19;11283821;26;19998;-66
2024/04/18 13:09:54;;;;;;;1999.90;999.90;;;;;;;15.19;45.41;101828.00;11252361;26;20007;-66
2024/04/18 13:14:58;;;;;;;1999.90;999.90;;;;;;;16.01;47.39;101842.31;11289239;26;19999;-66
2024/04/18 13:20:01;;;;;;;1999.90;999.90;;;;;;;14.28;50.54;101862.22;11290798;26;20022;-66
2024/04/18 13:25:04;;;;;;;1999.90;999.90;;;;;;;14.89;50.30;101855.25;11290389;26;20442;-66
2024/04/18 13:30:07;;;;;;;1999.90;999.90;;;;;;;13.72;51.25;101851.25;11290523;26;20009;-68
2024/04/18 13:35:10;;;;;;;1999.90;999.90;;;;;;;14.36;52.25;101846.00;11259171;26;20035;-70
2024/04/18 13:40:12;;;;;;;1999.90;999.90;;;;;;;15.17;50.35;101833.34;11258752;26;19999;-67
2024/04/18 13:45:15;;;;;;;1999.90;999.90;;;;;;;13.88;53.24;101854.75;11290126;26;19998;-68
2024/04/18 13:50:17;;;;;;;1999.90;999.90;;;;;;;13.69;55.02;101860.16;11258103;26;20011;-67
2024/04/18 13:55:20;;;;;;;1999.90;999.90;;;;;;;13.15;54.11;101839.28;11258351;26;20437;-67
2024/04/18 14:00:22;;;;;;;1999.90;999.90;;;;;;;13.92;54.04;101842.28;11289490;26;20010;-67
2024/04/18 14:05:25;;;;;;;1999.90;999.90;;;;;;;13.11;55.79;101856.16;11289341;26;19999;-66
2024/04/18 14:10:27;;;;;;;1999.90;999.90;;;;;;;13.04;54.86;101852.13;11289296;26;20010;-68
2024/04/18 14:15:36;;;;;;;1999.90;999.90;;;;;;;12.93;52.62;101831.66;11288704;26;20013;-68
2024/04/18 14:20:47;;;;;;;1999.90;999.90;;;;;;;13.57;53.71;101816.94;11245642;26;20010;-68
2024/04/18 14:25:49;;;;;;;1999.90;999.90;;;;;;;15.69;51.44;101805.53;11236141;26;20014;-68
2024/04/18 14:30:52;;;;;;;1999.90;999.90;;;;;;;12.91;50.57;101801.97;11286539;26;19999;-67
2024/04/18 14:35:54;;;;;;;1999.90;999.90;;;;;;;12.86;53.11;101818.88;11326298;26;19998;-67
2024/04/18 14:40:57;;;;;;;1999.90;999.90;;;;;;;13.44;56.13;101817.69;11362021;26;20007;-67
2024/04/18 14:46:12;;;;;;;1999.90;999.90;;;;;;;13.78;52.77;101803.53;11361217;26;20467;-67
2024/04/18 14:51:15;;;;;;;1999.90;999.90;;;;;;;13.33;51.77;101789.28;11361537;26;19998;-68
2024/04/18 14:56:18;;;;;;;1999.90;999.90;;;;;;;13.14;55.52;101819.16;11360102;26;19998;-68
2024/04/18 15:01:20;;;;;;;1999.90;999.90;;;;;;;12.87;55.22;101821.44;11360715;26;20012;-67
2024/04/18 15:06:22;;;;;;;1999.90;999.90;;;;;;;12.67;54.03;101813.72;11360751;26;20449;-67
2024/04/18 15:11:27;;;;;;;1999.90;999.90;;;;;;;13.20;54.53;101802.22;11285001;26;20350;-68
2024/04/18 15:16:29;;;;;;;1999.90;999.90;;;;;;;12.69;54.21;101811.84;11284994;26;20044;-67
2024/04/18 15:21:32;;;;;;;1999.90;999.90;;;;;;;12.54;56.78;101826.59;11286768;26;19999;-68
2024/04/18 15:26:35;;;;;;;1999.90;999.90;;;;;;;13.87;53.46;101807.44;11287323;26;20015;-67
2024/04/18 15:31:37;;;;;;;1999.90;999.90;;;;;;;13.03;53.04;101808.38;11285360;26;20003;-68
2024/04/18 15:36:40;;;;;;;1999.90;999.90;;;;;;;13.12;56.43;101830.69;11285928;26;20010;-68
2024/04/18 15:41:43;;;;;;;1999.90;999.90;;;;;;;12.81;58.07;101830.50;11284937;26;19999;-68
2024/04/18 15:46:46;;;;;;;1999.90;999.90;;;;;;;12.37;60.96;101822.16;11286176;26;20002;-68
2024/04/18 15:51:49;;;;;;;1999.90;999.90;;;;;;;12.33;61.24;101818.84;11284565;26;20442;-68
2024/04/18 15:56:52;;;;;;;1999.90;999.90;;;;;;;11.75;61.13;101822.44;11285949;26;20011;-68
2024/04/18 16:01:54;;;;;;;1999.90;999.90;;;;;;;12.07;61.74;101826.19;11285947;26;19999;-68
2024/04/18 16:06:57;;;;;;;1999.90;999.90;;;;;;;12.08;63.19;101832.28;11285786;26;20403;-68
2024/04/18 16:11:59;;;;;;;1999.90;999.90;;;;;;;12.05;61.76;101822.81;11285567;26;20327;-68
2024/04/18 16:17:02;;;;;;;1999.90;999.90;;;;;;;11.64;62.53;101822.06;11285574;26;20519;-68
2024/04/18 16:22:05;;;;;;;1999.90;999.90;;;;;;;11.80;61.35;101820.44;11284978;26;20350;-68
2024/04/18 16:27:07;;;;;;;1999.90;999.90;;;;;;;11.98;62.31;101812.66;11285354;26;19995;-67
2024/04/18 16:32:10;;;;;;;1999.90;999.90;;;;;;;11.85;59.88;101817.59;11285093;26;20009;-67
2024/04/18 16:37:12;;;;;;;1999.90;999.90;;;;;;;11.64;58.65;101815.03;11284548;26;20002;-67
2024/04/18 16:42:19;;;;;;;1999.90;999.90;;;;;;;11.45;60.21;101825.50;11284532;26;19999;-68
2024/04/18 16:47:22;;;;;;;1999.90;999.90;;;;;;;11.28;60.73;101826.25;11283211;26;20010;-68
2024/04/18 16:52:24;;;;;;;1999.90;999.90;;;;;;;10.91;60.69;101827.84;11284556;26;20370;-67
2024/04/18 16:57:27;;;;;;;1999.90;999.90;;;;;;;10.89;62.53;101823.56;11282263;26;20038;-68
2024/04/18 17:02:31;;;;;;;1999.90;999.90;;;;;;;11.17;63.97;101809.31;11283704;26;20366;-68
2024/04/18 17:07:34;;;;;;;1999.90;999.90;;;;;;;11.11;62.79;101803.41;11282059;26;20010;-68
2024/04/18 17:12:36;;;;;;;1999.90;999.90;;;;;;;10.75;62.85;101806.66;11283172;26;19999;-68
2024/04/18 17:17:39;;;;;;;1999.90;999.90;;;;;;;10.77;63.01;101806.59;11283105;26;20010;-68
2024/04/18 17:22:42;;;;;;;1999.90;999.90;;;;;;;10.33;60.99;101797.06;11282834;26;20026;-68
2024/04/18 17:27:44;;;;;;;1999.90;999.90;;;;;;;10.44;62.29;101803.63;11282995;26;19999;-68
2024/04/18 17:32:47;;;;;;;1999.90;999.90;;;;;;;10.55;62.76;101797.03;11282751;26;20014;-68
2024/04/18 17:37:51;;;;;;;1999.90;999.90;;;;;;;10.29;63.57;101797.19;11280806;26;20010;-68
2024/04/18 17:42:53;;;;;;;1999.90;999.90;;;;;;;10.45;64.09;101798.31;11282235;26;20031;-68
2024/04/18 17:47:56;;;;;;;1999.90;999.90;;;;;;;10.00;64.34;101787.00;11280318;26;19998;-68
2024/04/18 17:52:58;;;;;;;1999.90;999.90;;;;;;;9.73;65.47;101786.28;11282151;26;20025;-68
2024/04/18 17:58:01;;;;;;;1999.90;999.90;;;;;;;9.54;66.81;101793.13;11282975;26;20006;-68
2024/04/18 18:03:03;;;;;;;1999.90;999.90;;;;;;;9.75;66.79;101788.84;11289537;26;19999;-68
2024/04/18 18:08:06;;;;;;;1999.90;999.90;;;;;;;9.70;66.61;101794.25;11289308;26;19999;-68
2024/04/18 18:13:09;;;;;;;1999.90;999.90;;;;;;;9.58;66.26;101787.72;11289237;26;20013;-68
2024/04/18 18:18:12;;;;;;;1999.90;999.90;;;;;;;9.27;67.14;101782.78;11289243;26;19999;-68
2024/04/18 18:23:15;;;;;;;1999.90;999.90;;;;;;;9.20;67.57;101771.69;11288724;26;20034;-68
2024/04/18 18:28:18;;;;;;;1999.90;999.90;;;;;;;9.21;67.99;101775.13;11287209;26;20010;-68
2024/04/18 18:33:20;;;;;;;1999.90;999.90;;;;;;;9.29;69.03;101776.56;11288417;26;20034;-68
2024/04/18 18:38:23;;;;;;;1999.90;999.90;;;;;;;9.11;70.39;101775.47;11288427;26;19999;-68
2024/04/18 18:43:25;;;;;;;1999.90;999.90;;;;;;;9.16;69.89;101759.63;11286407;26;20031;-68
2024/04/18 18:48:28;;;;;;;1999.90;999.90;;;;;;;9.02;70.41;101762.72;11288262;26;20476;-68
2024/04/18 18:53:31;;;;;;;1999.90;999.90;;;;;;;9.01;71.17;101771.50;11288091;26;20013;-68
2024/04/18 18:58:33;;;;;;;1999.90;999.90;;;;;;;8.91;72.45;101762.28;11288038;26;19999;-68
2024/04/18 19:03:36;;;;;;;1999.90;999.90;;;;;;;8.80;72.50;101770.47;11287697;26;19999;-68
2024/04/18 19:08:38;;;;;;;1999.90;999.90;;;;;;;8.86;73.81;101780.72;11286700;26;20415;-68
2024/04/18 19:13:41;;;;;;;1999.90;999.90;;;;;;;8.98;73.82;101775.94;11284377;26;20462;-68
2024/04/18 19:18:44;;;;;;;1999.90;999.90;;;;;;;8.85;74.24;101773.78;11286408;26;19999;-68
2024/04/18 19:23:47;;;;;;;1999.90;999.90;;;;;;;8.82;72.77;101765.19;11286448;26;20010;-68
2024/04/18 19:28:52;;;;;;;1999.90;999.90;;;;;;;8.83;74.90;101761.69;11286794;26;19999;-68
2024/04/18 19:33:54;;;;;;;1999.90;999.90;;;;;;;8.62;73.71;101758.88;11286798;26;19999;-68
2024/04/18 19:38:57;;;;;;;1999.90;999.90;;;;;;;8.44;74.30;101754.28;11318289;21;20025;-67
2024/04/18 19:44:00;;;;;;;1999.90;999.90;;;;;;;8.72;73.53;101752.47;11362119;26;19998;-68
2024/04/18 19:49:04;;;;;;;1999.90;999.90;;;;;;;8.67;73.68;101763.97;11361273;26;19998;-68
2024/04/18 19:54:08;;;;;;;1999.90;999.90;;;;;;;8.64;73.98;101754.50;11361704;26;20344;-68
2024/04/18 19:59:12;;;;;;;1999.90;999.90;;;;;;;8.73;74.22;101733.28;11359351;26;20009;-68
2024/04/18 20:04:15;;;;;;;1999.90;999.90;;;;;;;8.50;74.49;101734.06;11361387;26;20406;-68
2024/04/18 20:09:17;;;;;;;1999.90;999.90;;;;;;;8.55;74.16;101729.53;11361271;26;20354;-68
2024/04/18 20:14:20;;;;;;;1999.90;999.90;;;;;;;8.52;74.61;101724.44;11361025;26;20009;-68
2024/04/18 20:19:23;;;;;;;1999.90;999.90;;;;;;;8.04;74.32;101729.47;11360595;26;20452;-68
2024/04/18 20:24:28;;;;;;;1999.90;999.90;;;;;;;8.22;75.32;101713.25;11360562;26;20009;-68
2024/04/18 20:29:32;;;;;;;1999.90;999.90;;;;;;;8.17;74.64;101704.72;11360405;26;20010;-68
2024/04/18 20:34:34;;;;;;;1999.90;999.90;;;;;;;8.29;74.50;101695.63;11358479;26;19998;-68
2024/04/18 20:39:38;;;;;;;1999.90;999.90;;;;;;;8.06;75.17;101696.38;11359915;26;20452;-68
2024/04/18 20:44:40;;;;;;;1999.90;999.90;;;;;;;8.02;74.36;101684.31;11359775;26;20010;-68
2024/04/18 20:49:43;;;;;;;1999.90;999.90;;;;;;;8.28;75.97;101684.31;11357925;26;20355;-68
2024/04/18 20:54:45;;;;;;;1999.90;999.90;;;;;;;8.07;76.27;101680.69;11359665;26;19999;-68
2024/04/18 20:59:48;;;;;;;1999.90;999.90;;;;;;;8.16;76.28;101684.72;11359300;26;20465;-68
2024/04/18 21:04:50;;;;;;;1999.90;999.90;;;;;;;8.32;76.46;101662.44;11359664;26;20013;-68
2024/04/18 21:09:53;;;;;;;1999.90;999.90;;;;;;;8.01;77.00;101667.81;11358814;26;20338;-68
2024/04/18 21:14:55;;;;;;;1999.90;999.90;;;;;;;8.20;77.61;101641.97;11357242;26;20009;-68
2024/04/18 21:19:57;;;;;;;1999.90;999.90;;;;;;;8.24;78.66;101633.16;11358836;26;20009;-68
2024/04/18 21:25:00;;;;;;;1999.90;999.90;;;;;;;8.53;78.26;101613.88;11359264;26;19998;-68
2024/04/18 21:30:02;;;;;;;1999.90;999.90;;;;;;;8.34;77.67;101615.44;11358489;26;20340;-68
2024/04/18 21:35:05;;;;;;;1999.90;999.90;;;;;;;8.23;78.08;101612.34;11362584;26;19999;-68
2024/04/18 21:40:08;;;;;;;1999.90;999.90;;;;;;;8.15;78.17;101604.75;11363959;26;19998;-67
2024/04/18 21:45:11;;;;;;;1999.90;999.90;;;;;;;8.31;77.70;101592.88;11365457;26;20013;-68
2024/04/18 21:50:13;;;;;;;1999.90;999.90;;;;;;;8.14;78.25;101587.44;11365045;26;19998;-67
2024/04/18 21:55:16;;;;;;;1999.90;999.90;;;;;;;7.99;76.73;101602.69;11363285;26;19998;-68
2024/04/18 22:00:18;;;;;;;1999.90;999.90;;;;;;;7.86;78.16;101590.94;11365102;26;19998;-68
2024/04/18 22:05:21;;;;;;;1999.90;999.90;;;;;;;8.04;77.31;101581.66;11364640;26;20016;-68